Terminal Aerodrome Forecast
Issued by NWS

Home | Current Version | Previous Version | Text Only | Print | Product List | Glossary On
Versions: 1 2 3 4 5 6 7 8 9 10 11 12 13 14
000
FTUS43 KPAH 021100
TAFCGI
TAF
KCGI 021120Z 0212/0312 19009KT P6SM SCT060 BKN250
     FM021800 19010G20KT P6SM VCTS BKN050CB
     FM022300 17010KT P6SM BKN040
     FM030600 24015G25KT 2SM +TSRA BR BKN025CB
     FM030700 26007KT 6SM -SHRA BR BKN030=

USA.gov is the U.S. government's official web portal to all federal, state and local government web resources and services.